createdAt,value
2022-12-15T00:00:36.902Z,99074.13
2022-12-15T00:05:58.154Z,99083.38
2022-12-15T00:11:21.304Z,99080.88
2022-12-15T00:16:42.722Z,99096.25
2022-12-15T00:22:04.855Z,99087.75
2022-12-15T00:27:26.076Z,99103.25
2022-12-15T00:32:47.337Z,99101.47
2022-12-15T00:38:08.480Z,99104.91
2022-12-15T00:43:12.220Z,99093.44
2022-12-15T00:48:15.328Z,99105.59
2022-12-15T00:53:41.015Z,99108.81
2022-12-15T00:59:02.342Z,99125.25
2022-12-15T01:04:23.714Z,99100.19
2022-12-15T01:09:45.536Z,99102.06
2022-12-15T01:15:06.607Z,99111.41
2022-12-15T01:20:20.236Z,99114.84
2022-12-15T01:25:26.252Z,99115.81
2022-12-15T01:30:29.179Z,99127.38
2022-12-15T01:35:32.692Z,99116.75
2022-12-15T01:40:45.396Z,99103.47
2022-12-15T01:46:12.706Z,99095.56
2022-12-15T01:51:34.020Z,99092.03
2022-12-15T01:56:46.432Z,99109.31
2022-12-15T02:01:49.524Z,99103.38
2022-12-15T02:06:53.747Z,99101.16
2022-12-15T02:12:07.077Z,99105.41
2022-12-15T02:17:19.994Z,99107.19
2022-12-15T02:23:03.846Z,99109.78
2022-12-15T02:28:21.405Z,99108.84
2022-12-15T02:33:30.011Z,99115.81
2022-12-15T02:38:38.323Z,99117.94
2022-12-15T02:43:41.075Z,99112.03
2022-12-15T02:49:21.932Z,99110.34
2022-12-15T02:55:11.398Z,99123.28
2022-12-15T03:00:17.224Z,99120.06
2022-12-15T03:05:22.537Z,99128.00
2022-12-15T03:10:26.518Z,99130.34
2022-12-15T03:15:35.056Z,99133.78
2022-12-15T03:20:38.727Z,99142.44
2022-12-15T03:25:41.781Z,99147.41
2022-12-15T03:30:45.103Z,99148.13
2022-12-15T03:35:48.734Z,99147.19
2022-12-15T03:40:51.520Z,99143.53
2022-12-15T03:45:54.504Z,99140.09
2022-12-15T03:50:57.512Z,99159.03
2022-12-15T03:56:00.373Z,99161.63
2022-12-15T04:01:21.897Z,99164.84
2022-12-15T04:06:24.941Z,99175.25
2022-12-15T04:11:27.919Z,99174.19
2022-12-15T04:16:30.943Z,99182.94
2022-12-15T04:21:33.978Z,99178.34
2022-12-15T04:26:55.244Z,99179.19
2022-12-15T04:32:17.246Z,99180.84
2022-12-15T04:37:38.406Z,99172.31
2022-12-15T04:43:04.190Z,99173.97
2022-12-15T04:48:26.200Z,99193.75
2022-12-15T04:53:47.507Z,99217.31
2022-12-15T04:59:08.820Z,99236.16
2022-12-15T05:04:30.407Z,99238.75
2022-12-15T05:09:51.816Z,99244.81
2022-12-15T05:15:12.693Z,99245.38
2022-12-15T05:20:34.052Z,99253.13
2022-12-15T05:25:55.474Z,99265.19
2022-12-15T05:31:16.905Z,99272.25
2022-12-15T05:36:20.990Z,99280.19
2022-12-15T05:41:24.531Z,99290.75
2022-12-15T05:46:27.611Z,99294.88
2022-12-15T05:51:30.615Z,99308.25
2022-12-15T05:56:33.519Z,99308.75
2022-12-15T06:01:37.537Z,99325.13
2022-12-15T06:06:41.625Z,99335.53
2022-12-15T06:11:44.817Z,99358.38
2022-12-15T06:16:51.203Z,99378.25
2022-12-15T06:21:54.393Z,99386.00
2022-12-15T06:26:57.394Z,99394.50
2022-12-15T06:32:00.413Z,99392.75
2022-12-15T06:37:03.889Z,99388.34
2022-12-15T06:42:06.866Z,99397.63
2022-12-15T06:47:09.907Z,99393.13
2022-12-15T06:52:12.878Z,99384.34
2022-12-15T06:57:15.982Z,99408.09
2022-12-15T07:02:22.443Z,99408.94
2022-12-15T07:07:29.878Z,99426.81
2022-12-15T07:12:32.661Z,99424.97
2022-12-15T07:17:37.082Z,99423.69
2022-12-15T07:22:40.266Z,99450.97
2022-12-15T07:27:43.296Z,99441.03
2022-12-15T07:32:50.196Z,99445.47
2022-12-15T07:37:54.075Z,99451.88
2022-12-15T07:42:57.444Z,99465.63
2022-12-15T07:48:00.341Z,99464.81
2022-12-15T07:53:03.453Z,99461.38
2022-12-15T07:58:09.261Z,99466.13
2022-12-15T08:03:12.236Z,99481.66
2022-12-15T08:08:15.804Z,99468.78
2022-12-15T08:13:52.504Z,99484.00
2022-12-15T08:18:41.782Z,99520.78
2022-12-15T08:23:45.174Z,99534.31
2022-12-15T08:28:48.284Z,99514.66
2022-12-15T08:33:51.653Z,99510.03
2022-12-15T08:38:58.352Z,99520.28
2022-12-15T08:44:02.442Z,99531.56
2022-12-15T08:49:05.450Z,99533.97
2022-12-15T08:54:09.384Z,99536.50
2022-12-15T08:59:12.396Z,99540.03
2022-12-15T09:04:15.682Z,99549.19
2022-12-15T09:09:19.953Z,99543.13
2022-12-15T09:14:28.863Z,99547.06
2022-12-15T09:19:32.398Z,99554.91
2022-12-15T09:24:35.725Z,99561.09
2022-12-15T09:29:38.758Z,99548.03
2022-12-15T09:34:42.095Z,99547.06
2022-12-15T09:39:45.544Z,99541.69
2022-12-15T09:44:50.560Z,99540.94
2022-12-15T09:50:09.653Z,99550.69
2022-12-15T09:55:26.147Z,99549.09
2022-12-15T10:00:52.579Z,99537.16
2022-12-15T10:06:21.414Z,99523.09
2022-12-15T10:11:43.653Z,99522.94
2022-12-15T10:17:11.122Z,99518.13
2022-12-15T10:22:23.759Z,99528.59
2022-12-15T10:28:06.242Z,99532.53
2022-12-15T10:33:24.299Z,99525.56
2022-12-15T10:38:42.578Z,99520.69
2022-12-15T10:43:50.344Z,99521.44
2022-12-15T10:49:08.778Z,99529.28
2022-12-15T10:54:13.897Z,99521.09
2022-12-15T10:59:34.064Z,99519.31
2022-12-15T11:04:37.010Z,99513.47
2022-12-15T11:09:40.497Z,99518.44
2022-12-15T11:14:48.098Z,99524.50
2022-12-15T11:20:04.383Z,99522.38
2022-12-15T11:25:44.353Z,99522.25
2022-12-15T11:31:00.411Z,99529.03
2022-12-15T11:36:32.628Z,99533.91
2022-12-15T11:42:11.843Z,99533.50
2022-12-15T11:47:29.657Z,99537.69
2022-12-15T11:52:57.048Z,99536.72
2022-12-15T11:59:09.844Z,99546.59
2022-12-15T12:04:21.803Z,99541.97
2022-12-15T12:09:36.772Z,99544.22
2022-12-15T12:15:08.286Z,99532.78
2022-12-15T12:20:39.821Z,99550.84
2022-12-15T12:26:02.914Z,99548.09
2022-12-15T12:31:36.801Z,99545.59
2022-12-15T12:36:43.956Z,99544.91
2022-12-15T12:42:09.609Z,99513.84
2022-12-15T12:47:20.385Z,99517.44
2022-12-15T12:52:37.326Z,99529.81
2022-12-15T12:57:42.841Z,99532.31
2022-12-15T13:03:11.093Z,99544.44
2022-12-15T13:08:13.797Z,99547.75
2022-12-15T13:13:32.203Z,99547.75
2022-12-15T13:19:03.016Z,99546.94
2022-12-15T13:24:06.134Z,99547.66
2022-12-15T13:29:14.070Z,99552.16
2022-12-15T13:34:29.423Z,99552.56
2022-12-15T13:39:35.625Z,99552.09
2022-12-15T13:44:51.870Z,99571.88
2022-12-15T13:50:15.381Z,99572.47
2022-12-15T13:55:32.806Z,99567.28
2022-12-15T14:00:39.384Z,99574.09
2022-12-15T14:05:59.380Z,99575.28
2022-12-15T14:16:27.070Z,99576.16
2022-12-15T14:21:30.490Z,99564.50
2022-12-15T14:26:33.501Z,99588.16
2022-12-15T14:31:37.862Z,99583.28
2022-12-15T14:36:42.990Z,99571.28
2022-12-15T14:41:50.634Z,99576.03
2022-12-15T14:46:54.901Z,99571.16
2022-12-15T14:52:03.122Z,99571.44
2022-12-15T14:57:23.343Z,99564.75
2022-12-15T15:02:30.070Z,99577.13
2022-12-15T15:03:14.143Z,99569.84
2022-12-15T15:07:35.664Z,99593.88
2022-12-15T15:12:45.483Z,99581.06
2022-12-15T15:17:51.871Z,99580.22
2022-12-15T15:23:17.489Z,99601.84
2022-12-15T15:28:22.390Z,99583.41
2022-12-15T15:33:26.617Z,99576.53
2022-12-15T15:38:35.413Z,99585.19
2022-12-15T15:43:38.773Z,99565.25
2022-12-15T15:49:08.115Z,99558.22
2022-12-15T15:54:18.127Z,99572.97
2022-12-15T15:59:21.717Z,99574.75
2022-12-15T16:04:25.461Z,99569.63
2022-12-15T16:09:28.482Z,99554.91
2022-12-15T16:14:31.404Z,99559.41
2022-12-15T16:19:39.465Z,99558.56
2022-12-15T16:24:43.672Z,99571.78
2022-12-15T16:29:46.367Z,99568.34
2022-12-15T16:34:52.702Z,99560.63
2022-12-15T16:39:55.654Z,99585.09
2022-12-15T16:44:58.714Z,99598.16
2022-12-15T16:50:01.639Z,99588.63
2022-12-15T16:55:05.060Z,99582.72
2022-12-15T17:00:40.907Z,99580.09
2022-12-15T17:05:49.672Z,99592.47
2022-12-15T17:10:52.715Z,99609.94
2022-12-15T17:15:55.923Z,99615.03
2022-12-15T17:21:25.879Z,99608.84
2022-12-15T17:26:32.317Z,99594.25
2022-12-15T17:31:36.292Z,99596.84
2022-12-15T17:36:39.404Z,99606.47
2022-12-15T17:41:59.512Z,99605.53
2022-12-15T17:47:05.721Z,99615.97
2022-12-15T17:52:34.700Z,99603.88
2022-12-15T17:57:38.047Z,99605.75
2022-12-15T18:02:41.162Z,99599.69
2022-12-15T18:07:45.217Z,99602.44
2022-12-15T18:12:48.182Z,99598.16
2022-12-15T18:17:51.122Z,99593.88
2022-12-15T18:22:54.272Z,99593.88
2022-12-15T18:28:00.185Z,99592.19
2022-12-15T18:33:03.235Z,99592.44
2022-12-15T18:38:25.308Z,99608.13
2022-12-15T18:43:34.311Z,99605.50
2022-12-15T18:48:37.670Z,99601.00
2022-12-15T18:53:41.289Z,99607.88
2022-12-15T18:58:44.375Z,99599.09
2022-12-15T19:03:47.285Z,99599.09
2022-12-15T19:08:51.348Z,99603.72
2022-12-15T19:13:54.258Z,99586.13
2022-12-15T19:19:17.463Z,99598.28
2022-12-15T19:24:50.580Z,99595.75
2022-12-15T19:29:55.192Z,99591.50
2022-12-15T19:34:58.311Z,99588.16
2022-12-15T19:40:02.368Z,99578.75
2022-12-15T19:45:28.255Z,99584.81
2022-12-15T19:50:37.391Z,99582.34
2022-12-15T19:55:41.927Z,99586.59
2022-12-15T20:00:45.046Z,99575.19
2022-12-15T20:05:51.962Z,99561.22
2022-12-15T20:10:56.058Z,99543.84
2022-12-15T20:15:58.812Z,99525.56
2022-12-15T20:21:01.991Z,99509.88
2022-12-15T20:26:06.919Z,99502.41
2022-12-15T20:31:15.798Z,99499.06
2022-12-15T20:36:24.577Z,99481.72
2022-12-15T20:41:29.395Z,99493.00
2022-12-15T20:46:35.427Z,99510.34
2022-12-15T20:51:38.432Z,99502.41
2022-12-15T20:56:42.683Z,99498.84
2022-12-15T21:01:46.918Z,99502.16
2022-12-15T21:06:54.647Z,99486.47
2022-12-15T21:11:58.656Z,99501.19
2022-12-15T21:17:01.591Z,99487.44
2022-12-15T21:22:06.466Z,99483.75
2022-12-15T21:27:14.617Z,99472.38
2022-12-15T21:32:17.864Z,99469.84
2022-12-15T21:37:28.700Z,99467.00
2022-12-15T21:42:35.788Z,99467.63
2022-12-15T21:47:57.063Z,99446.94
2022-12-15T21:53:01.466Z,99445.16
2022-12-15T21:58:22.085Z,99451.06
2022-12-15T22:03:25.362Z,99436.81
2022-12-15T22:08:29.801Z,99426.38
2022-12-15T22:13:33.938Z,99427.31
2022-12-15T22:18:36.993Z,99426.63
2022-12-15T22:23:40.110Z,99426.38
2022-12-15T22:28:43.116Z,99420.19
2022-12-15T22:33:46.171Z,99399.28
2022-12-15T22:38:49.839Z,99391.34
2022-12-15T22:43:55.786Z,99393.81
2022-12-15T22:48:58.789Z,99385.16
2022-12-15T22:54:02.157Z,99382.28
2022-12-15T22:59:11.276Z,99375.41
2022-12-15T23:04:14.452Z,99370.75
2022-12-15T23:09:17.389Z,99379.31
2022-12-15T23:14:40.287Z,99376.56
2022-12-15T23:19:47.105Z,99365.97
2022-12-15T23:24:50.028Z,99365.72
2022-12-15T23:29:52.953Z,99354.59
2022-12-15T23:34:57.908Z,99345.06
2022-12-15T23:40:01.183Z,99338.75
2022-12-15T23:45:05.397Z,99321.53
2022-12-15T23:50:08.948Z,99323.91
2022-12-15T23:55:12.066Z,99322.00
